Strona główna
METAR-TAF:

METAR-TAF

Lotnisko :

Port Meadville Airport

Meadville, Pensylwania, Stany Zjednoczone

Szerokość geograficzna: 41-37-35N, Długość geograficzna: 080-12-53W, wysokość: 427 m

Aktualna obserwacja pogody

Raport powstał 16 minut temu, godzina 11:53 UTC
Wiatr 11 kt od zachodnio-południowy zachód w porywach dochodzący do 17 kt
Temperatura 19°C
Wilgotność 88%
Ciśnienie 1011 hPa
Widzialność: 16.1 km
Mało chmury na wysokości 1000 ft
Przerywane chmury na wysokości 1400 ft
Przerywane chmury na wysokości 2000 ft

METAR: KGKJ 251153Z AUTO 24011G17KT 10SM FEW010 BKN014 BKN020 19/17 A2986 RMK AO2 SLP102 70037 T01940167 10200 20183 53012 TSNO

czas: 08:09 (12:09 UTC)


TAF: brakujący

Obserwacja i prognoza pogody dla ponad 4000 lotnisk (raport METAR i TAF).

Dostępne stacje oznaczono żółtymi i czerwonymi punktami na mapie.

Najedź kursorem aby zobaczyć nazwę stacji.

Kliknij aby zobaczyć obserwacje i prognozy pogody.

Aby zmienić mapę: kliknij na zielony przycisk z czarnym krzyżykiem, aby powiększyć; na zielony przycisk z myślnikiem, aby pomniejszyć; na zielone strzałki, aby przejść do map sąsiednich.


METAR-TAF: